Time;durP1;ratioP1;P1;durP2;ratioP2;P2;SDS_P1;SDS_P2;PMS_P1;PMS_P2;Temp;Humidity;BMP_temperature;BMP_pressure;BME280_temperature;BME280_humidity;BME280_pressure;Samples;Min_cycle;Max_cycle;Signal;HPM_P1;HPM_P2
2020/12/04 00:00:07;;;;;;;4.93;3.13;;;7.60;99.90;;;;;;5119709;27;20207;-73
2020/12/04 00:02:34;;;;;;;4.30;3.53;;;7.50;99.90;;;;;;5112027;28;20521;-73
2020/12/04 00:05:00;;;;;;;4.28;3.28;;;7.60;99.90;;;;;;5110849;28;20205;-73
2020/12/04 00:07:26;;;;;;;4.97;3.67;;;7.60;99.90;;;;;;5110617;27;20213;-73
2020/12/04 00:09:53;;;;;;;3.45;3.15;;;7.60;99.90;;;;;;5114692;27;20197;-73
2020/12/04 00:12:19;;;;;;;4.22;3.83;;;7.60;99.90;;;;;;5136309;27;20203;-73
2020/12/04 00:14:45;;;;;;;4.75;4.30;;;7.60;99.90;;;;;;5130533;27;20203;-73
2020/12/04 00:17:11;;;;;;;3.45;3.15;;;7.60;99.90;;;;;;5130284;27;20196;-73
2020/12/04 00:19:38;;;;;;;5.07;3.63;;;7.60;99.90;;;;;;5135887;27;20821;-74
2020/12/04 00:22:05;;;;;;;3.92;3.25;;;7.60;99.90;;;;;;5133355;27;20184;-74
2020/12/04 00:24:31;;;;;;;4.00;3.20;;;7.60;99.90;;;;;;5122477;27;20200;-74
2020/12/04 00:26:58;;;;;;;3.85;3.08;;;7.60;99.90;;;;;;5128965;27;20234;-74
2020/12/04 00:29:26;;;;;;;4.20;3.33;;;7.60;99.90;;;;;;5114706;27;20205;-75
2020/12/04 00:31:53;;;;;;;5.25;3.63;;;7.60;99.90;;;;;;5114934;27;20221;-74
2020/12/04 00:34:20;;;;;;;4.20;3.40;;;7.50;99.90;;;;;;5130071;27;20207;-74
2020/12/04 00:36:47;;;;;;;4.55;3.72;;;7.60;99.90;;;;;;5133889;27;20772;-74
2020/12/04 00:39:14;;;;;;;7.03;3.90;;;7.60;99.90;;;;;;5116409;27;20448;-74
2020/12/04 00:41:41;;;;;;;3.88;3.05;;;7.60;99.90;;;;;;5121092;27;20193;-74
2020/12/04 00:44:07;;;;;;;6.78;3.63;;;7.60;99.90;;;;;;5126010;27;20220;-74
2020/12/04 00:46:33;;;;;;;3.78;3.30;;;7.70;99.90;;;;;;5115052;27;20201;-74
2020/12/04 00:48:59;;;;;;;5.50;2.80;;;7.60;99.90;;;;;;5117202;27;20201;-74
2020/12/04 00:51:26;;;;;;;5.47;3.67;;;7.60;99.90;;;;;;5113844;27;20224;-74
2020/12/04 00:53:54;;;;;;;4.20;3.10;;;7.60;99.90;;;;;;5114067;27;20552;-74
2020/12/04 00:56:21;;;;;;;3.17;2.90;;;7.60;99.90;;;;;;5114696;28;20601;-73
2020/12/04 01:02:09;;;;;;;2.97;2.65;;;7.60;99.90;;;;;;5115993;27;20635;-74
2020/12/04 01:04:36;;;;;;;3.72;3.10;;;7.60;99.90;;;;;;5129649;27;20208;-73
2020/12/04 01:07:04;;;;;;;3.45;2.92;;;7.60;99.90;;;;;;5114157;27;20290;-74
2020/12/04 01:09:31;;;;;;;4.43;3.30;;;7.60;99.90;;;;;;5117844;27;20266;-74
2020/12/04 01:11:58;;;;;;;3.10;2.80;;;7.60;99.90;;;;;;5130343;27;20224;-75
2020/12/04 01:14:24;;;;;;;3.47;3.15;;;7.60;99.90;;;;;;5120233;27;20207;-74
2020/12/04 01:16:50;;;;;;;3.58;2.90;;;7.60;99.90;;;;;;5113674;27;20197;-74
2020/12/04 01:19:16;;;;;;;3.30;3.00;;;7.60;99.90;;;;;;5132217;27;20295;-74
2020/12/04 01:21:43;;;;;;;3.72;2.83;;;7.60;99.90;;;;;;5134731;27;20203;-74
2020/12/04 01:24:09;;;;;;;4.60;3.60;;;7.60;99.90;;;;;;5116558;27;20203;-74
2020/12/04 01:26:39;;;;;;;3.30;2.92;;;7.60;99.90;;;;;;5113923;27;20197;-74
2020/12/04 01:29:05;;;;;;;3.97;3.47;;;7.60;99.90;;;;;;5126250;27;20210;-74
2020/12/04 01:31:31;;;;;;;3.10;2.80;;;7.60;99.90;;;;;;5120029;27;20223;-74
2020/12/04 01:34:00;;;;;;;3.28;2.95;;;7.60;99.90;;;;;;5113978;27;20196;-74
2020/12/04 01:36:26;;;;;;;3.58;3.20;;;7.60;99.90;;;;;;5131990;27;20662;-73
2020/12/04 01:38:52;;;;;;;3.35;3.05;;;7.60;99.90;;;;;;5116332;27;20684;-73
2020/12/04 01:41:19;;;;;;;3.13;2.75;;;7.50;99.90;;;;;;5113652;28;20192;-73
2020/12/04 01:43:46;;;;;;;3.13;2.70;;;7.60;99.90;;;;;;5122060;27;20219;-73
2020/12/04 01:46:14;;;;;;;5.40;3.22;;;7.50;99.90;;;;;;5134225;27;20243;-74
2020/12/04 01:48:43;;;;;;;3.40;3.10;;;7.60;99.90;;;;;;5125910;27;20536;-74
2020/12/04 01:51:10;;;;;;;2.78;2.53;;;7.60;99.90;;;;;;5113693;27;20216;-74
2020/12/04 01:53:37;;;;;;;3.63;2.80;;;7.60;99.90;;;;;;5112570;27;20200;-74
2020/12/04 01:56:04;;;;;;;4.88;2.75;;;7.60;99.90;;;;;;5113579;27;20193;-74
2020/12/04 01:58:30;;;;;;;4.03;3.20;;;7.60;99.90;;;;;;5126264;27;20543;-74
2020/12/04 02:00:57;;;;;;;4.43;2.92;;;7.60;99.90;;;;;;5130607;27;20193;-73
2020/12/04 02:03:23;;;;;;;3.42;2.50;;;7.60;99.90;;;;;;5127931;27;20199;-74
2020/12/04 02:05:58;;;;;;;4.38;2.97;;;7.60;99.90;;;;;;5122063;27;20193;-74
2020/12/04 02:08:30;;;;;;;4.65;3.05;;;7.60;99.90;;;;;;5112203;27;20222;-73
2020/12/04 02:11:17;;;;;;;5.57;2.95;;;7.70;99.90;;;;;;5113535;27;20220;-74
2020/12/04 02:13:45;;;;;;;2.67;2.40;;;7.60;99.90;;;;;;5112892;27;20204;-74
2020/12/04 02:16:16;;;;;;;3.45;3.13;;;7.60;99.90;;;;;;5113169;28;20196;-74
2020/12/04 02:18:42;;;;;;;3.75;3.05;;;7.60;99.90;;;;;;5111960;27;20193;-74
2020/12/04 02:21:11;;;;;;;4.13;3.38;;;7.70;99.90;;;;;;5112995;27;20211;-74
2020/12/04 02:23:39;;;;;;;3.60;2.97;;;7.60;99.90;;;;;;5122309;27;20196;-74
2020/12/04 02:26:07;;;;;;;3.75;3.03;;;7.60;99.90;;;;;;5122814;27;20208;-74
2020/12/04 02:28:35;;;;;;;4.82;2.63;;;7.70;99.90;;;;;;5124608;27;20585;-74
2020/12/04 02:31:02;;;;;;;3.38;2.38;;;7.70;99.90;;;;;;5128188;27;20204;-74
2020/12/04 02:33:28;;;;;;;3.50;3.20;;;7.70;99.90;;;;;;5126286;27;20196;-74
2020/12/04 02:35:55;;;;;;;4.47;3.00;;;7.70;99.90;;;;;;5112812;28;20234;-75
2020/12/04 02:38:22;;;;;;;3.00;2.70;;;7.60;99.90;;;;;;5115735;27;20229;-74
2020/12/04 02:40:49;;;;;;;3.47;2.63;;;7.60;99.90;;;;;;5112782;28;20203;-74
2020/12/04 02:43:15;;;;;;;3.88;3.00;;;7.70;99.90;;;;;;5112316;27;20211;-74
2020/12/04 02:45:42;;;;;;;4.03;2.83;;;7.70;99.90;;;;;;5115403;27;20581;-74
2020/12/04 02:48:09;;;;;;;3.85;2.80;;;7.70;99.90;;;;;;5112443;27;20205;-74
2020/12/04 02:50:35;;;;;;;4.93;2.83;;;7.70;99.90;;;;;;5112467;28;20227;-74
2020/12/04 02:53:02;;;;;;;3.85;2.95;;;7.60;99.90;;;;;;5115749;27;20811;-74
2020/12/04 02:55:29;;;;;;;3.38;2.70;;;7.70;99.90;;;;;;5112072;28;20209;-74
2020/12/04 02:57:55;;;;;;;3.83;2.53;;;7.60;99.90;;;;;;5115473;27;20207;-74
2020/12/04 03:00:21;;;;;;;2.60;2.33;;;7.70;99.90;;;;;;5110473;28;20636;-74
2020/12/04 03:02:48;;;;;;;3.65;2.63;;;7.70;99.90;;;;;;5112561;28;20207;-74
2020/12/04 03:05:14;;;;;;;3.00;2.70;;;7.70;99.90;;;;;;5112677;27;20200;-73
2020/12/04 03:07:40;;;;;;;2.42;2.22;;;7.60;99.90;;;;;;5126710;27;20245;-74
2020/12/04 03:10:07;;;;;;;2.03;1.92;;;7.70;99.90;;;;;;5143821;27;20195;-74
2020/12/04 03:12:35;;;;;;;3.22;2.53;;;7.60;99.90;;;;;;5129257;27;20210;-74
2020/12/04 03:15:01;;;;;;;3.03;2.72;;;7.70;99.90;;;;;;5127295;27;20192;-73
2020/12/04 03:17:28;;;;;;;2.00;1.80;;;7.60;99.90;;;;;;5113504;28;20188;-73
2020/12/04 03:19:54;;;;;;;2.17;1.98;;;7.70;99.90;;;;;;5112678;28;20211;-73
2020/12/04 03:22:20;;;;;;;4.18;3.47;;;7.70;99.90;;;;;;5111743;28;20199;-73
2020/12/04 03:24:47;;;;;;;3.30;2.55;;;7.70;99.90;;;;;;5120690;28;20300;-73
2020/12/04 03:27:13;;;;;;;4.20;2.85;;;7.60;99.90;;;;;;5127386;27;20193;-73
2020/12/04 03:29:41;;;;;;;2.90;2.25;;;7.60;99.90;;;;;;5131295;27;20642;-73
2020/12/04 03:32:07;;;;;;;2.22;2.03;;;7.60;99.90;;;;;;5132610;27;20241;-73
2020/12/04 03:34:34;;;;;;;2.83;2.53;;;7.60;99.90;;;;;;5129612;27;20220;-73
2020/12/04 03:37:01;;;;;;;3.50;2.90;;;7.60;99.90;;;;;;5113931;28;20188;-73
2020/12/04 03:39:27;;;;;;;3.58;2.50;;;7.60;99.90;;;;;;5111787;28;20684;-73
2020/12/04 03:41:54;;;;;;;2.17;1.98;;;7.60;99.90;;;;;;5112508;28;20509;-73
2020/12/04 03:44:20;;;;;;;3.35;2.47;;;7.60;99.90;;;;;;5116116;28;20196;-73
2020/12/04 03:46:48;;;;;;;2.28;2.08;;;7.60;99.90;;;;;;5115301;28;20201;-73
2020/12/04 03:49:15;;;;;;;3.47;2.40;;;7.60;99.90;;;;;;5116324;27;20193;-73
2020/12/04 03:51:42;;;;;;;3.17;2.33;;;7.60;99.90;;;;;;5115908;27;20216;-73
2020/12/04 03:54:08;;;;;;;2.83;2.03;;;7.60;99.90;;;;;;5132562;27;20203;-73
2020/12/04 03:56:34;;;;;;;3.03;2.20;;;7.60;99.90;;;;;;5136513;27;20337;-73
2020/12/04 03:59:00;;;;;;;2.95;2.75;;;7.60;99.90;;;;;;5116461;27;20192;-73
2020/12/04 04:01:27;;;;;;;3.70;2.78;;;7.60;99.90;;;;;;5129619;27;20196;-73
2020/12/04 04:03:54;;;;;;;2.40;1.98;;;7.60;99.90;;;;;;5136604;27;20206;-74
2020/12/04 04:06:20;;;;;;;2.35;2.10;;;7.70;99.90;;;;;;5136488;27;20196;-73
2020/12/04 04:08:47;;;;;;;2.20;2.00;;;7.60;99.90;;;;;;5118526;27;20196;-73
2020/12/04 04:11:13;;;;;;;2.22;2.03;;;7.60;99.90;;;;;;5115739;27;20216;-74
2020/12/04 04:13:39;;;;;;;2.60;2.33;;;7.70;99.90;;;;;;5115890;28;20207;-74
2020/12/04 04:16:06;;;;;;;2.75;2.55;;;7.70;99.90;;;;;;5115728;28;20539;-73
2020/12/04 04:18:32;;;;;;;2.58;2.38;;;7.70;99.90;;;;;;5117028;27;20196;-74
2020/12/04 04:20:59;;;;;;;2.47;2.28;;;7.60;99.90;;;;;;5115360;27;20193;-74
2020/12/04 04:23:26;;;;;;;3.20;2.25;;;7.70;99.90;;;;;;5115825;27;20193;-74
2020/12/04 04:25:52;;;;;;;2.00;1.80;;;7.70;99.90;;;;;;5115213;28;20536;-73
2020/12/04 04:28:18;;;;;;;2.50;2.25;;;7.60;99.90;;;;;;5115340;28;20232;-73
2020/12/04 04:30:45;;;;;;;2.13;1.92;;;7.70;99.90;;;;;;5119244;27;20200;-73
2020/12/04 04:33:11;;;;;;;2.63;2.42;;;7.70;99.90;;;;;;5121992;27;20629;-74
2020/12/04 04:35:38;;;;;;;2.55;2.33;;;7.70;99.90;;;;;;5123937;27;20194;-74
2020/12/04 04:38:05;;;;;;;3.13;2.83;;;7.70;99.90;;;;;;5114737;27;20199;-74
2020/12/04 04:40:32;;;;;;;3.10;2.30;;;7.70;99.90;;;;;;5114910;27;20207;-74
2020/12/04 04:43:08;;;;;;;2.78;2.00;;;7.70;99.90;;;;;;5126450;27;20707;-75
2020/12/04 04:45:35;;;;;;;3.38;2.78;;;7.70;99.90;;;;;;5135701;27;20199;-74
2020/12/04 04:48:05;;;;;;;2.13;1.92;;;7.70;99.90;;;;;;5133453;27;20198;-74
2020/12/04 04:50:33;;;;;;;2.88;2.58;;;7.70;99.90;;;;;;5119444;27;20187;-74
2020/12/04 04:53:01;;;;;;;2.00;1.80;;;7.70;99.90;;;;;;5125785;27;20207;-74
2020/12/04 04:55:28;;;;;;;2.30;1.90;;;7.70;99.90;;;;;;5128688;27;20196;-74
2020/12/04 04:57:59;;;;;;;1.80;1.45;;;7.70;99.90;;;;;;5134808;27;20188;-74
2020/12/04 05:00:25;;;;;;;2.67;1.95;;;7.70;99.90;;;;;;5114046;28;20284;-74
2020/12/04 05:02:52;;;;;;;4.05;2.30;;;7.70;99.90;;;;;;5114762;28;20234;-74
2020/12/04 05:05:18;;;;;;;2.80;1.70;;;7.70;99.90;;;;;;5114115;28;20203;-74
2020/12/04 05:07:44;;;;;;;1.90;1.70;;;7.70;99.90;;;;;;5118373;27;20616;-73
2020/12/04 05:10:12;;;;;;;2.55;1.65;;;7.70;99.90;;;;;;5135398;27;20316;-73
2020/12/04 05:12:41;;;;;;;3.03;2.05;;;7.70;99.90;;;;;;5126399;27;20673;-74
2020/12/04 05:15:21;;;;;;;2.28;1.88;;;7.70;99.90;;;;;;5114193;27;20192;-74
2020/12/04 05:18:08;;;;;;;2.60;1.95;;;7.70;99.90;;;;;;5114558;28;20203;-75
2020/12/04 05:20:35;;;;;;;2.55;2.15;;;7.70;99.90;;;;;;5113919;28;20239;-75
2020/12/04 05:23:01;;;;;;;2.25;1.83;;;7.70;99.90;;;;;;5114356;28;20225;-75
2020/12/04 05:25:33;;;;;;;2.60;1.50;;;7.70;99.90;;;;;;5113918;28;20193;-75
2020/12/04 05:28:09;;;;;;;1.92;1.60;;;7.70;99.90;;;;;;5113623;28;20189;-75
2020/12/04 05:30:35;;;;;;;2.08;1.80;;;7.80;99.90;;;;;;5114027;28;20191;-73
2020/12/04 05:33:03;;;;;;;2.30;1.80;;;7.70;99.90;;;;;;5124209;27;20288;-73
2020/12/04 05:35:30;;;;;;;1.70;1.60;;;7.80;99.90;;;;;;5134764;27;20206;-73
2020/12/04 05:38:11;;;;;;;1.67;1.55;;;7.80;99.90;;;;;;5131520;27;20536;-73
2020/12/04 05:40:38;;;;;;;3.17;1.42;;;7.70;99.90;;;;;;5113867;28;20250;-73
2020/12/04 05:43:05;;;;;;;2.47;2.22;;;7.70;99.90;;;;;;5124542;27;20598;-73
2020/12/04 05:45:32;;;;;;;1.70;1.40;;;7.80;99.90;;;;;;5114499;27;20201;-74
2020/12/04 05:47:59;;;;;;;1.70;1.40;;;7.70;99.90;;;;;;5113961;28;20222;-73
2020/12/04 05:50:26;;;;;;;1.58;1.48;;;7.80;99.90;;;;;;5114729;27;20195;-73
2020/12/04 05:52:52;;;;;;;2.05;1.85;;;7.70;99.90;;;;;;5114022;27;20223;-73
2020/12/04 05:55:18;;;;;;;2.80;1.88;;;7.70;99.90;;;;;;5113483;28;20205;-73
2020/12/04 05:57:47;;;;;;;1.90;1.70;;;7.80;99.90;;;;;;5132250;27;20218;-72
2020/12/04 06:00:15;;;;;;;2.00;1.58;;;7.80;99.90;;;;;;5129232;27;20189;-73
2020/12/04 06:02:42;;;;;;;2.90;1.85;;;7.80;99.90;;;;;;5113609;28;20258;-73
2020/12/04 06:05:10;;;;;;;2.53;2.33;;;7.70;99.90;;;;;;5113256;27;20197;-73
2020/12/04 06:07:37;;;;;;;2.30;1.80;;;7.70;99.90;;;;;;5123277;27;20196;-74
2020/12/04 06:10:04;;;;;;;1.80;1.55;;;7.70;99.90;;;;;;5129067;27;20202;-75
2020/12/04 06:12:30;;;;;;;2.10;1.90;;;7.80;99.90;;;;;;5133044;27;20290;-75
2020/12/04 06:15:21;;;;;;;1.85;1.70;;;7.70;99.90;;;;;;5133540;27;20769;-75
2020/12/04 06:17:50;;;;;;;5.35;2.30;;;7.70;99.90;;;;;;5120827;27;20197;-74
2020/12/04 06:20:18;;;;;;;1.67;1.58;;;7.70;99.90;;;;;;5114201;27;20203;-73
2020/12/04 06:23:08;;;;;;;2.08;1.80;;;7.80;99.90;;;;;;5112761;28;20208;-73
2020/12/04 06:26:04;;;;;;;1.55;1.45;;;7.70;99.90;;;;;;5112422;28;20192;-74
2020/12/04 06:28:33;;;;;;;2.13;1.40;;;7.70;99.90;;;;;;5117357;27;20193;-73
2020/12/04 06:31:08;;;;;;;1.90;1.65;;;7.70;99.90;;;;;;5120075;27;20208;-74
2020/12/04 06:33:40;;;;;;;1.85;1.60;;;7.70;99.90;;;;;;5112952;28;20291;-75
2020/12/04 06:36:08;;;;;;;1.88;1.48;;;7.80;99.90;;;;;;5112667;28;20197;-75
2020/12/04 06:38:52;;;;;;;3.45;1.80;;;7.70;99.90;;;;;;5122624;27;20224;-74
2020/12/04 06:41:26;;;;;;;2.60;1.95;;;7.70;99.90;;;;;;5133167;27;20192;-73
2020/12/04 06:43:55;;;;;;;3.17;1.70;;;7.70;99.90;;;;;;5133318;27;20195;-73
2020/12/04 06:46:46;;;;;;;1.85;1.40;;;7.70;99.90;;;;;;5130000;27;20292;-73
2020/12/04 06:49:36;;;;;;;2.10;1.90;;;7.70;99.90;;;;;;5097481;28;20269;-73
2020/12/04 06:52:05;;;;;;;1.75;1.52;;;7.70;99.90;;;;;;5111364;28;20212;-73
2020/12/04 06:54:33;;;;;;;2.67;2.47;;;7.70;99.90;;;;;;5129577;27;20234;-74
2020/12/04 06:57:00;;;;;;;1.90;1.67;;;7.70;99.90;;;;;;5121018;27;20192;-77
2020/12/04 06:59:28;;;;;;;2.67;2.05;;;7.70;99.90;;;;;;5122549;27;20643;-76
2020/12/04 07:02:02;;;;;;;2.53;1.80;;;7.70;99.90;;;;;;5126260;27;20189;-75
2020/12/04 07:04:31;;;;;;;2.75;1.55;;;7.80;99.90;;;;;;5126614;27;20202;-75
2020/12/04 07:07:05;;;;;;;1.90;1.80;;;7.80;99.90;;;;;;5136061;27;20277;-75
2020/12/04 07:09:31;;;;;;;2.50;1.80;;;7.80;99.90;;;;;;5119168;27;20199;-75
2020/12/04 07:11:58;;;;;;;2.95;1.95;;;7.80;99.90;;;;;;5120050;27;20303;-74
2020/12/04 07:14:25;;;;;;;2.30;2.03;;;7.80;99.90;;;;;;5139342;27;20520;-76
2020/12/04 07:16:51;;;;;;;2.70;2.15;;;7.80;99.90;;;;;;5121257;27;20200;-76
2020/12/04 07:19:18;;;;;;;3.20;1.95;;;7.80;99.90;;;;;;5112497;28;20188;-75
2020/12/04 07:21:45;;;;;;;2.10;1.80;;;7.80;99.90;;;;;;5113722;28;20185;-75
2020/12/04 07:24:12;;;;;;;2.97;2.08;;;7.80;99.90;;;;;;5120400;27;20196;-75
2020/12/04 07:26:43;;;;;;;1.80;1.60;;;7.80;99.90;;;;;;5121322;27;20188;-75
2020/12/04 07:29:10;;;;;;;2.10;1.90;;;7.80;99.90;;;;;;5121186;27;20200;-75
2020/12/04 07:31:36;;;;;;;1.73;1.63;;;7.80;99.90;;;;;;5117808;28;20633;-74
2020/12/04 07:34:03;;;;;;;2.08;1.88;;;7.80;99.90;;;;;;5115194;27;20189;-75
2020/12/04 07:36:31;;;;;;;2.28;2.08;;;7.80;99.90;;;;;;5118070;28;20628;-75
2020/12/04 07:39:00;;;;;;;2.10;1.90;;;7.80;99.90;;;;;;5113517;27;20307;-75
2020/12/04 07:41:35;;;;;;;1.83;1.63;;;7.80;99.90;;;;;;5115773;28;20196;-74
2020/12/04 07:44:05;;;;;;;1.75;1.33;;;7.80;99.90;;;;;;5111689;28;20196;-75
2020/12/04 07:46:32;;;;;;;1.83;1.48;;;7.80;99.90;;;;;;5115376;27;20203;-75
2020/12/04 07:49:00;;;;;;;2.13;1.75;;;7.80;99.90;;;;;;5124751;27;20234;-75
2020/12/04 07:51:28;;;;;;;2.30;2.10;;;7.90;99.90;;;;;;5120653;28;20303;-74
2020/12/04 07:53:55;;;;;;;2.17;1.90;;;7.90;99.90;;;;;;5130376;28;20196;-74
2020/12/04 07:56:24;;;;;;;2.70;2.08;;;7.80;99.90;;;;;;5126654;27;20200;-74
2020/12/04 07:58:59;;;;;;;2.78;2.05;;;7.90;99.90;;;;;;5129096;27;20197;-75
2020/12/04 08:01:26;;;;;;;2.53;1.88;;;7.90;99.90;;;;;;5126037;28;20937;-74
2020/12/04 08:03:54;;;;;;;1.80;1.70;;;7.80;99.90;;;;;;5130007;27;20195;-75
2020/12/04 08:06:25;;;;;;;2.55;2.08;;;7.90;99.90;;;;;;5132094;27;20292;-75
2020/12/04 08:09:12;;;;;;;1.70;1.60;;;7.80;99.90;;;;;;5118647;27;20193;-75
2020/12/04 08:11:48;;;;;;;2.03;1.75;;;7.80;99.90;;;;;;5111468;28;20300;-75
2020/12/04 08:14:15;;;;;;;3.65;1.90;;;7.80;99.90;;;;;;5112251;28;20204;-75
2020/12/04 08:16:42;;;;;;;2.10;1.90;;;7.80;99.90;;;;;;5118214;28;20669;-76
2020/12/04 08:19:11;;;;;;;1.90;1.65;;;7.90;99.90;;;;;;5120279;27;20250;-76
2020/12/04 08:21:56;;;;;;;2.65;1.50;;;7.90;99.90;;;;;;5120104;27;20227;-76
2020/12/04 08:24:24;;;;;;;2.67;2.20;;;7.90;99.90;;;;;;5121506;28;20196;-75
2020/12/04 08:27:06;;;;;;;2.22;2.03;;;7.90;99.90;;;;;;5126378;27;20514;-74
2020/12/04 08:29:33;;;;;;;2.25;2.03;;;7.90;99.90;;;;;;5115789;27;20200;-74
2020/12/04 08:32:08;;;;;;;2.15;1.95;;;7.90;99.90;;;;;;5126260;27;20571;-74
2020/12/04 08:34:35;;;;;;;2.38;2.17;;;7.90;99.90;;;;;;5146387;27;20197;-73
2020/12/04 08:37:02;;;;;;;1.80;1.60;;;7.90;99.90;;;;;;5126525;27;20207;-74
2020/12/04 08:39:37;;;;;;;2.20;2.00;;;7.90;99.90;;;;;;5114968;28;20323;-74
2020/12/04 08:42:15;;;;;;;2.65;2.08;;;7.90;99.90;;;;;;5120365;27;20276;-75
2020/12/04 08:44:42;;;;;;;2.33;2.13;;;8.00;99.90;;;;;;5115969;27;20192;-75
2020/12/04 08:47:09;;;;;;;2.47;2.28;;;8.00;99.90;;;;;;5115816;27;20235;-74
2020/12/04 08:49:35;;;;;;;2.25;2.05;;;8.00;99.90;;;;;;5114770;28;20193;-75
2020/12/04 08:52:03;;;;;;;2.60;2.10;;;8.00;99.90;;;;;;5123455;27;20217;-75
2020/12/04 08:54:30;;;;;;;2.13;1.85;;;8.00;99.90;;;;;;5113684;28;20235;-74
2020/12/04 08:56:56;;;;;;;5.38;1.70;;;8.00;99.90;;;;;;5117523;27;20194;-74
2020/12/04 08:59:24;;;;;;;2.25;1.80;;;8.00;99.90;;;;;;5133821;27;20249;-74
2020/12/04 09:01:51;;;;;;;2.17;1.98;;;8.00;99.90;;;;;;5135068;27;20654;-74
2020/12/04 09:04:17;;;;;;;2.30;1.80;;;8.10;99.90;;;;;;5134465;27;20218;-75
2020/12/04 09:06:45;;;;;;;2.40;1.90;;;8.10;99.90;;;;;;5118083;27;20200;-75
2020/12/04 09:09:11;;;;;;;2.10;1.75;;;8.10;99.90;;;;;;5114199;27;20197;-75
2020/12/04 09:11:38;;;;;;;2.08;1.88;;;8.10;99.90;;;;;;5113944;28;20216;-75
2020/12/04 09:14:04;;;;;;;2.80;2.17;;;8.10;99.90;;;;;;5119039;27;20203;-74
2020/12/04 09:16:31;;;;;;;7.53;2.08;;;8.10;99.90;;;;;;5114345;27;20193;-76
2020/12/04 09:18:58;;;;;;;3.95;2.13;;;8.10;99.90;;;;;;5133892;27;20204;-74
2020/12/04 09:21:24;;;;;;;4.25;2.03;;;8.00;99.90;;;;;;5134450;27;20206;-76
2020/12/04 09:23:50;;;;;;;3.00;2.13;;;8.00;99.90;;;;;;5129780;27;20189;-75
2020/12/04 09:26:17;;;;;;;2.70;1.70;;;7.90;99.90;;;;;;5113607;28;20268;-75
2020/12/04 09:28:43;;;;;;;2.20;1.92;;;7.90;99.90;;;;;;5114566;28;20674;-75
2020/12/04 09:31:09;;;;;;;2.00;1.70;;;7.90;99.90;;;;;;5113353;28;20197;-75
2020/12/04 09:33:36;;;;;;;2.10;1.77;;;7.90;99.90;;;;;;5114083;28;20203;-75
2020/12/04 09:36:03;;;;;;;3.47;1.75;;;8.00;99.90;;;;;;5121928;27;20197;-75
2020/12/04 09:38:30;;;;;;;1.80;1.70;;;8.00;99.90;;;;;;5113958;28;20232;-75
2020/12/04 09:40:56;;;;;;;7.32;2.38;;;8.10;99.90;;;;;;5116414;27;20212;-75
2020/12/04 09:43:24;;;;;;;2.25;2.05;;;8.10;99.90;;;;;;5123617;27;20198;-75
2020/12/04 09:45:51;;;;;;;2.35;1.58;;;8.20;99.90;;;;;;5119513;27;20205;-76
2020/12/04 09:48:17;;;;;;;1.85;1.75;;;8.20;99.90;;;;;;5113918;27;20196;-75
2020/12/04 09:50:44;;;;;;;2.03;1.85;;;8.20;99.90;;;;;;5113489;28;20189;-75
2020/12/04 09:53:11;;;;;;;2.30;1.55;;;8.10;99.90;;;;;;5121915;27;20212;-76
2020/12/04 09:55:37;;;;;;;1.80;1.40;;;8.20;99.90;;;;;;5133862;27;20240;-75
2020/12/04 09:58:03;;;;;;;1.70;1.60;;;8.20;99.90;;;;;;5113732;27;20806;-75
2020/12/04 10:00:30;;;;;;;2.15;1.90;;;8.10;99.90;;;;;;5113749;27;20196;-75
2020/12/04 10:02:56;;;;;;;2.00;1.83;;;8.20;99.90;;;;;;5113298;27;20193;-75
2020/12/04 10:05:22;;;;;;;1.67;1.55;;;8.20;99.90;;;;;;5130781;27;20200;-85
2020/12/04 10:07:49;;;;;;;2.95;2.38;;;8.20;99.90;;;;;;5129308;27;20279;-75
2020/12/04 10:10:16;;;;;;;2.00;1.80;;;8.20;99.90;;;;;;5123382;27;20188;-76
2020/12/04 10:12:42;;;;;;;2.08;1.75;;;8.20;99.90;;;;;;5113091;27;20219;-75
2020/12/04 10:15:08;;;;;;;2.10;1.83;;;8.20;99.90;;;;;;5115086;27;20189;-75
2020/12/04 10:17:35;;;;;;;2.65;1.70;;;8.30;99.90;;;;;;5122533;27;20188;-75
2020/12/04 10:20:02;;;;;;;2.25;1.50;;;8.30;99.90;;;;;;5119048;27;20196;-75
2020/12/04 10:22:28;;;;;;;2.58;1.88;;;8.40;99.90;;;;;;5112685;28;20185;-75
2020/12/04 10:24:55;;;;;;;2.45;1.90;;;8.40;99.90;;;;;;5113315;28;20197;-75
2020/12/04 10:27:22;;;;;;;1.55;1.45;;;8.20;99.90;;;;;;5113142;27;20532;-75
2020/12/04 10:29:49;;;;;;;1.70;1.33;;;8.30;99.90;;;;;;5114556;27;20204;-75
2020/12/04 10:32:15;;;;;;;1.73;1.30;;;8.30;99.90;;;;;;5127940;27;20212;-75
2020/12/04 10:34:41;;;;;;;2.30;1.80;;;8.30;99.90;;;;;;5117680;27;20203;-75
2020/12/04 10:37:08;;;;;;;1.90;1.55;;;8.40;99.90;;;;;;5117320;27;20207;-75
2020/12/04 10:39:34;;;;;;;3.00;1.98;;;8.40;99.90;;;;;;5132890;27;20220;-75
2020/12/04 10:42:03;;;;;;;1.77;1.58;;;8.50;99.90;;;;;;5127979;27;20188;-77
2020/12/04 10:44:32;;;;;;;1.90;1.48;;;8.50;99.90;;;;;;5121330;27;20196;-75
2020/12/04 10:46:59;;;;;;;2.13;1.85;;;8.40;99.90;;;;;;5113205;27;20227;-76
2020/12/04 10:49:25;;;;;;;2.55;2.00;;;8.60;99.90;;;;;;5131450;27;20268;-74
2020/12/04 10:51:55;;;;;;;1.88;1.70;;;8.60;99.90;;;;;;5117973;27;20213;-74
2020/12/04 10:54:21;;;;;;;1.80;1.42;;;8.60;99.90;;;;;;5117962;27;20279;-74
2020/12/04 10:56:48;;;;;;;3.15;1.48;;;8.60;99.90;;;;;;5126347;27;20223;-74
2020/12/04 10:59:15;;;;;;;2.15;1.95;;;8.60;99.90;;;;;;5114581;27;20203;-74
2020/12/04 11:01:46;;;;;;;1.85;1.33;;;8.60;99.90;;;;;;5123057;27;20184;-74
2020/12/04 11:06:56;;;;;;;1.92;1.30;;;8.50;99.90;;;;;;5143068;27;20199;-76
2020/12/04 11:09:23;;;;;;;1.73;1.50;;;8.50;99.90;;;;;;5132974;27;20210;-76
2020/12/04 11:11:49;;;;;;;2.83;2.10;;;8.50;99.90;;;;;;5129846;27;20558;-74
2020/12/04 11:14:16;;;;;;;2.03;1.83;;;8.50;99.90;;;;;;5112441;28;20655;-74
2020/12/04 11:16:43;;;;;;;2.00;1.60;;;8.40;99.90;;;;;;5112273;28;20206;-74
2020/12/04 11:19:09;;;;;;;1.63;1.50;;;8.50;99.90;;;;;;5126490;27;20188;-74
2020/12/04 11:21:36;;;;;;;2.63;1.60;;;8.50;99.90;;;;;;5113351;27;20193;-74
2020/12/04 11:24:02;;;;;;;1.90;1.40;;;8.50;99.90;;;;;;5111767;28;20197;-75
2020/12/04 11:26:28;;;;;;;2.10;1.77;;;8.50;99.90;;;;;;5118170;28;20205;-74
2020/12/04 11:28:55;;;;;;;3.40;1.73;;;8.50;99.90;;;;;;5124108;28;20279;-76
2020/12/04 11:31:22;;;;;;;3.78;1.40;;;8.50;99.90;;;;;;5132774;27;20206;-75
2020/12/04 11:33:48;;;;;;;1.95;1.10;;;8.50;99.90;;;;;;5132741;27;20208;-76
2020/12/04 11:36:14;;;;;;;2.13;1.92;;;8.50;99.90;;;;;;5114529;27;20205;-77
2020/12/04 11:38:41;;;;;;;1.90;1.55;;;8.50;99.90;;;;;;5111461;28;20228;-77
2020/12/04 11:41:07;;;;;;;1.90;1.55;;;8.50;99.90;;;;;;5113412;28;20207;-79
2020/12/04 11:43:33;;;;;;;1.95;1.40;;;8.60;99.90;;;;;;5117718;28;20919;-77
2020/12/04 11:46:00;;;;;;;2.30;1.75;;;8.60;99.90;;;;;;5129739;27;20202;-76
2020/12/04 11:48:28;;;;;;;2.05;1.48;;;8.70;99.90;;;;;;5112245;28;20201;-77
2020/12/04 11:50:54;;;;;;;1.95;1.40;;;8.60;99.90;;;;;;5112044;28;20207;-76
2020/12/04 11:53:21;;;;;;;2.00;1.50;;;8.50;99.90;;;;;;5132557;27;20307;-76
2020/12/04 11:55:47;;;;;;;1.95;1.50;;;8.50;99.90;;;;;;5136854;27;20196;-76
2020/12/04 11:58:13;;;;;;;1.75;1.50;;;8.50;99.90;;;;;;5132455;27;20197;-77
2020/12/04 12:00:40;;;;;;;2.15;1.40;;;8.60;99.90;;;;;;5132782;27;20528;-76
2020/12/04 12:03:06;;;;;;;2.72;1.88;;;8.60;99.90;;;;;;5130957;27;20252;-76
2020/12/04 12:05:36;;;;;;;2.45;1.38;;;8.60;99.90;;;;;;5118162;27;20207;-75
2020/12/04 12:08:03;;;;;;;1.55;1.45;;;8.60;99.90;;;;;;5126508;27;20195;-76
2020/12/04 12:10:29;;;;;;;1.80;1.40;;;8.60;99.90;;;;;;5136217;27;20193;-76
2020/12/04 12:12:55;;;;;;;1.73;1.63;;;8.60;99.90;;;;;;5128509;27;20732;-75
2020/12/04 12:15:22;;;;;;;6.07;1.70;;;8.70;99.90;;;;;;5115877;28;20192;-75
2020/12/04 12:17:48;;;;;;;3.88;1.50;;;8.70;99.90;;;;;;5115525;28;20197;-78
2020/12/04 12:20:14;;;;;;;2.15;1.75;;;8.70;99.90;;;;;;5116358;27;20192;-77
2020/12/04 12:22:41;;;;;;;3.15;1.50;;;8.70;99.90;;;;;;5123326;27;20192;-77
2020/12/04 12:25:08;;;;;;;2.65;1.42;;;8.70;99.90;;;;;;5134652;27;20210;-74
2020/12/04 12:27:34;;;;;;;1.50;1.25;;;8.70;99.90;;;;;;5129858;27;20188;-76
2020/12/04 12:30:00;;;;;;;1.70;1.58;;;8.70;99.90;;;;;;5115432;27;20203;-81
2020/12/04 12:32:27;;;;;;;1.60;1.40;;;8.70;99.90;;;;;;5127110;27;20204;-78
2020/12/04 12:35:00;;;;;;;1.50;1.30;;;8.80;99.90;;;;;;5130801;27;20188;-77
2020/12/04 12:37:28;;;;;;;1.40;1.23;;;8.80;99.90;;;;;;5116393;27;20242;-77
2020/12/04 12:39:55;;;;;;;1.85;1.48;;;8.80;99.90;;;;;;5131717;27;20635;-76
2020/12/04 12:42:21;;;;;;;1.92;1.15;;;8.80;99.90;;;;;;5114478;28;20643;-78
2020/12/04 12:44:48;;;;;;;1.90;1.50;;;8.80;99.90;;;;;;5116973;27;20203;-77
2020/12/04 12:47:15;;;;;;;1.63;1.25;;;8.80;99.90;;;;;;5118426;27;20532;-76
2020/12/04 12:49:41;;;;;;;1.40;1.10;;;8.80;99.90;;;;;;5125132;27;20678;-78
2020/12/04 12:52:09;;;;;;;1.80;1.38;;;8.80;99.90;;;;;;5125660;27;20526;-79
2020/12/04 12:54:35;;;;;;;1.30;1.20;;;8.80;99.90;;;;;;5119111;27;20189;-80
2020/12/04 12:57:03;;;;;;;2.13;1.17;;;8.80;99.90;;;;;;5129165;27;20198;-78
2020/12/04 12:59:29;;;;;;;2.20;1.30;;;8.80;99.90;;;;;;5130693;27;20576;-77
2020/12/04 13:01:56;;;;;;;1.10;0.90;;;8.80;99.90;;;;;;5131553;27;20207;-77
2020/12/04 13:04:23;;;;;;;3.60;1.10;;;8.80;99.90;;;;;;5115671;27;20230;-76
2020/12/04 13:06:51;;;;;;;2.92;1.52;;;8.80;99.90;;;;;;5132500;27;20204;-76